Alliance, Nebraska
Current Conditions -  °F | °C
As of 11:53 PM on Friday 24 Oct 2014 (Local Time) from KAIA Reporting Station
Clear Clear  
Wind Chill: 30°   Ceiling: Unl
Heat Index: 36°   Visibility: 10mi
Dew Point: 32°   Wind: 7mph
Humidity: 86%   Direction: 270°W
Pressure: 30.12"   Gusts: NA
Location:  42.1°N, 102.87°W
Report Text: KAIA 250553Z AUTO 27006KT 10SM CLR 02/00 A3012 RMK AO2 SLP182 T00220000 10194 20022 51013 $
Loading
Personal Weather Stations






























Interactive Weather Map
Tropical Storm Tracking
New forecast layout! Learn more

10-Day Weather Forecast

Advertisements
Track Severe Weather on mobile